sensor_id;sensor_type;location;lat;lon;timestamp;temperature;humidity
76263;DHT22;65080;50.908;6.916;2023-06-19T00:00:57;24.00;60.90
76263;DHT22;65080;50.908;6.916;2023-06-19T00:03:27;24.00;60.80
76263;DHT22;65080;50.908;6.916;2023-06-19T00:05:55;23.90;60.20
76263;DHT22;65080;50.908;6.916;2023-06-19T00:08:23;23.90;59.80
76263;DHT22;65080;50.908;6.916;2023-06-19T00:10:52;23.90;59.60
76263;DHT22;65080;50.908;6.916;2023-06-19T00:13:20;23.80;59.60
76263;DHT22;65080;50.908;6.916;2023-06-19T00:15:48;23.90;59.60
76263;DHT22;65080;50.908;6.916;2023-06-19T00:18:16;23.80;59.30
76263;DHT22;65080;50.908;6.916;2023-06-19T00:20:48;23.80;59.30
76263;DHT22;65080;50.908;6.916;2023-06-19T00:23:16;23.80;59.40
76263;DHT22;65080;50.908;6.916;2023-06-19T00:25:44;23.70;59.20
76263;DHT22;65080;50.908;6.916;2023-06-19T00:28:12;23.70;59.30
76263;DHT22;65080;50.908;6.916;2023-06-19T00:30:42;23.70;59.30
76263;DHT22;65080;50.908;6.916;2023-06-19T00:33:11;23.70;59.30
76263;DHT22;65080;50.908;6.916;2023-06-19T00:35:40;23.70;59.40
76263;DHT22;65080;50.908;6.916;2023-06-19T00:38:10;23.70;59.50
76263;DHT22;65080;50.908;6.916;2023-06-19T00:40:39;23.70;59.50
76263;DHT22;65080;50.908;6.916;2023-06-19T00:43:07;23.70;59.50
76263;DHT22;65080;50.908;6.916;2023-06-19T00:45:36;23.70;59.50
76263;DHT22;65080;50.908;6.916;2023-06-19T00:48:04;23.60;59.50
76263;DHT22;65080;50.908;6.916;2023-06-19T00:50:33;23.60;59.60
76263;DHT22;65080;50.908;6.916;2023-06-19T00:53:02;23.60;59.60
76263;DHT22;65080;50.908;6.916;2023-06-19T00:55:33;23.60;59.70
76263;DHT22;65080;50.908;6.916;2023-06-19T00:58:02;23.60;59.70
76263;DHT22;65080;50.908;6.916;2023-06-19T01:00:30;23.60;59.70
76263;DHT22;65080;50.908;6.916;2023-06-19T01:02:59;23.60;59.80
76263;DHT22;65080;50.908;6.916;2023-06-19T01:05:27;23.70;60.00
76263;DHT22;65080;50.908;6.916;2023-06-19T01:07:59;23.70;59.90
76263;DHT22;65080;50.908;6.916;2023-06-19T01:10:31;23.70;59.90
76263;DHT22;65080;50.908;6.916;2023-06-19T01:13:12;23.70;59.90
76263;DHT22;65080;50.908;6.916;2023-06-19T01:15:42;23.60;60.00
76263;DHT22;65080;50.908;6.916;2023-06-19T01:18:10;23.60;59.90
76263;DHT22;65080;50.908;6.916;2023-06-19T01:20:40;23.60;60.00
76263;DHT22;65080;50.908;6.916;2023-06-19T01:23:11;23.60;60.00
76263;DHT22;65080;50.908;6.916;2023-06-19T01:25:39;23.60;60.10
76263;DHT22;65080;50.908;6.916;2023-06-19T01:28:09;23.60;60.10
76263;DHT22;65080;50.908;6.916;2023-06-19T01:30:41;23.60;60.10
76263;DHT22;65080;50.908;6.916;2023-06-19T01:33:14;23.50;60.00
76263;DHT22;65080;50.908;6.916;2023-06-19T01:35:45;23.50;60.00
76263;DHT22;65080;50.908;6.916;2023-06-19T01:38:16;23.50;60.00
76263;DHT22;65080;50.908;6.916;2023-06-19T01:40:46;23.50;60.00
76263;DHT22;65080;50.908;6.916;2023-06-19T01:43:15;23.50;60.00
76263;DHT22;65080;50.908;6.916;2023-06-19T01:45:44;23.50;59.80
76263;DHT22;65080;50.908;6.916;2023-06-19T01:48:14;23.50;59.80
76263;DHT22;65080;50.908;6.916;2023-06-19T01:50:45;23.50;59.90
76263;DHT22;65080;50.908;6.916;2023-06-19T01:53:14;23.50;60.00
76263;DHT22;65080;50.908;6.916;2023-06-19T01:55:44;23.60;60.00
76263;DHT22;65080;50.908;6.916;2023-06-19T01:58:12;23.50;60.10
76263;DHT22;65080;50.908;6.916;2023-06-19T02:00:40;23.50;60.10
76263;DHT22;65080;50.908;6.916;2023-06-19T02:03:09;23.50;60.10
76263;DHT22;65080;50.908;6.916;2023-06-19T02:05:37;23.50;60.30
76263;DHT22;65080;50.908;6.916;2023-06-19T02:08:06;23.50;60.50
76263;DHT22;65080;50.908;6.916;2023-06-19T02:10:35;23.50;60.70
76263;DHT22;65080;50.908;6.916;2023-06-19T02:13:04;23.50;60.90
76263;DHT22;65080;50.908;6.916;2023-06-19T02:15:33;23.40;61.10
76263;DHT22;65080;50.908;6.916;2023-06-19T02:18:01;23.40;61.20
76263;DHT22;65080;50.908;6.916;2023-06-19T02:20:29;23.40;61.50
76263;DHT22;65080;50.908;6.916;2023-06-19T02:22:57;23.40;61.70
76263;DHT22;65080;50.908;6.916;2023-06-19T02:25:25;23.30;61.90
76263;DHT22;65080;50.908;6.916;2023-06-19T02:27:54;23.40;62.00
76263;DHT22;65080;50.908;6.916;2023-06-19T02:30:23;23.40;62.10
76263;DHT22;65080;50.908;6.916;2023-06-19T02:32:52;23.40;62.20
76263;DHT22;65080;50.908;6.916;2023-06-19T02:35:20;23.30;62.10
76263;DHT22;65080;50.908;6.916;2023-06-19T02:37:48;23.40;62.30
76263;DHT22;65080;50.908;6.916;2023-06-19T02:40:17;23.40;62.30
76263;DHT22;65080;50.908;6.916;2023-06-19T02:42:45;23.40;62.40
76263;DHT22;65080;50.908;6.916;2023-06-19T02:45:14;23.40;62.50
76263;DHT22;65080;50.908;6.916;2023-06-19T02:47:44;23.40;62.50
76263;DHT22;65080;50.908;6.916;2023-06-19T02:50:13;23.40;62.80
76263;DHT22;65080;50.908;6.916;2023-06-19T02:52:41;23.40;62.70
76263;DHT22;65080;50.908;6.916;2023-06-19T02:55:09;23.40;62.60
76263;DHT22;65080;50.908;6.916;2023-06-19T02:57:37;23.40;62.50
76263;DHT22;65080;50.908;6.916;2023-06-19T03:00:06;23.40;62.50
76263;DHT22;65080;50.908;6.916;2023-06-19T03:02:36;23.40;62.70
76263;DHT22;65080;50.908;6.916;2023-06-19T03:05:12;23.40;62.90
76263;DHT22;65080;50.908;6.916;2023-06-19T03:07:42;23.30;62.90
76263;DHT22;65080;50.908;6.916;2023-06-19T03:10:10;23.30;63.00
76263;DHT22;65080;50.908;6.916;2023-06-19T03:12:38;23.30;63.20
76263;DHT22;65080;50.908;6.916;2023-06-19T03:15:07;23.30;63.20
76263;DHT22;65080;50.908;6.916;2023-06-19T03:17:35;23.30;63.20
76263;DHT22;65080;50.908;6.916;2023-06-19T03:20:04;23.20;63.20
76263;DHT22;65080;50.908;6.916;2023-06-19T03:22:34;23.20;63.60
76263;DHT22;65080;50.908;6.916;2023-06-19T03:25:03;23.20;63.70
76263;DHT22;65080;50.908;6.916;2023-06-19T03:27:33;23.10;63.70
76263;DHT22;65080;50.908;6.916;2023-06-19T03:30:02;22.80;63.60
76263;DHT22;65080;50.908;6.916;2023-06-19T03:32:33;22.80;63.90
76263;DHT22;65080;50.908;6.916;2023-06-19T03:35:01;22.80;64.20
76263;DHT22;65080;50.908;6.916;2023-06-19T03:37:32;22.60;64.30
76263;DHT22;65080;50.908;6.916;2023-06-19T03:40:01;22.60;64.40
76263;DHT22;65080;50.908;6.916;2023-06-19T03:42:31;22.60;64.50
76263;DHT22;65080;50.908;6.916;2023-06-19T03:45:01;22.50;64.50
76263;DHT22;65080;50.908;6.916;2023-06-19T03:47:29;22.50;64.70
76263;DHT22;65080;50.908;6.916;2023-06-19T03:49:58;22.40;65.00
76263;DHT22;65080;50.908;6.916;2023-06-19T03:52:45;22.40;65.30
76263;DHT22;65080;50.908;6.916;2023-06-19T03:55:14;22.30;65.30
76263;DHT22;65080;50.908;6.916;2023-06-19T03:57:43;22.20;64.60
76263;DHT22;65080;50.908;6.916;2023-06-19T04:00:12;22.20;63.50
76263;DHT22;65080;50.908;6.916;2023-06-19T04:02:41;22.10;62.80
76263;DHT22;65080;50.908;6.916;2023-06-19T04:05:10;22.10;62.40
76263;DHT22;65080;50.908;6.916;2023-06-19T04:07:38;22.00;62.10
76263;DHT22;65080;50.908;6.916;2023-06-19T04:10:07;22.00;62.00
76263;DHT22;65080;50.908;6.916;2023-06-19T04:12:37;22.00;61.80
76263;DHT22;65080;50.908;6.916;2023-06-19T04:15:07;22.00;61.70
76263;DHT22;65080;50.908;6.916;2023-06-19T04:17:36;22.00;61.60
76263;DHT22;65080;50.908;6.916;2023-06-19T04:20:05;22.10;61.60
76263;DHT22;65080;50.908;6.916;2023-06-19T04:22:47;22.10;61.40
76263;DHT22;65080;50.908;6.916;2023-06-19T04:25:15;22.10;61.20
76263;DHT22;65080;50.908;6.916;2023-06-19T04:27:45;22.20;61.30
76263;DHT22;65080;50.908;6.916;2023-06-19T04:30:13;22.20;61.30
76263;DHT22;65080;50.908;6.916;2023-06-19T04:32:41;22.20;61.40
76263;DHT22;65080;50.908;6.916;2023-06-19T04:35:10;22.20;61.40
76263;DHT22;65080;50.908;6.916;2023-06-19T04:37:38;22.20;61.60
76263;DHT22;65080;50.908;6.916;2023-06-19T04:40:07;22.30;61.80
76263;DHT22;65080;50.908;6.916;2023-06-19T04:42:36;22.20;61.90
76263;DHT22;65080;50.908;6.916;2023-06-19T04:45:08;22.20;62.10
76263;DHT22;65080;50.908;6.916;2023-06-19T04:47:36;22.10;63.00
76263;DHT22;65080;50.908;6.916;2023-06-19T04:50:19;22.10;62.50
76263;DHT22;65080;50.908;6.916;2023-06-19T04:52:47;22.10;62.50
76263;DHT22;65080;50.908;6.916;2023-06-19T04:55:18;22.20;62.70
76263;DHT22;65080;50.908;6.916;2023-06-19T04:57:46;22.20;62.80
76263;DHT22;65080;50.908;6.916;2023-06-19T05:00:17;22.30;62.80
76263;DHT22;65080;50.908;6.916;2023-06-19T05:02:47;22.30;62.80
76263;DHT22;65080;50.908;6.916;2023-06-19T05:05:15;22.30;62.70
76263;DHT22;65080;50.908;6.916;2023-06-19T05:07:45;22.40;62.90
76263;DHT22;65080;50.908;6.916;2023-06-19T05:10:13;22.30;62.80
76263;DHT22;65080;50.908;6.916;2023-06-19T05:12:42;22.30;63.00
76263;DHT22;65080;50.908;6.916;2023-06-19T05:15:10;22.30;63.10
76263;DHT22;65080;50.908;6.916;2023-06-19T05:17:40;22.30;63.10
76263;DHT22;65080;50.908;6.916;2023-06-19T05:20:10;22.30;63.20
76263;DHT22;65080;50.908;6.916;2023-06-19T05:22:38;22.30;63.10
76263;DHT22;65080;50.908;6.916;2023-06-19T05:25:07;22.30;63.10
76263;DHT22;65080;50.908;6.916;2023-06-19T05:27:36;22.20;63.20
76263;DHT22;65080;50.908;6.916;2023-06-19T05:30:05;22.20;63.30
76263;DHT22;65080;50.908;6.916;2023-06-19T05:32:34;22.30;63.50
76263;DHT22;65080;50.908;6.916;2023-06-19T05:35:04;22.30;63.40
76263;DHT22;65080;50.908;6.916;2023-06-19T05:37:33;22.30;63.40
76263;DHT22;65080;50.908;6.916;2023-06-19T05:40:01;22.40;63.50
76263;DHT22;65080;50.908;6.916;2023-06-19T05:42:30;22.40;63.30
76263;DHT22;65080;50.908;6.916;2023-06-19T05:44:58;22.40;63.20
76263;DHT22;65080;50.908;6.916;2023-06-19T05:47:27;22.40;63.10
76263;DHT22;65080;50.908;6.916;2023-06-19T05:49:56;22.40;63.00
76263;DHT22;65080;50.908;6.916;2023-06-19T05:52:26;22.50;62.90
76263;DHT22;65080;50.908;6.916;2023-06-19T05:54:54;22.50;62.80
76263;DHT22;65080;50.908;6.916;2023-06-19T05:57:25;22.50;62.90
76263;DHT22;65080;50.908;6.916;2023-06-19T05:59:53;22.60;62.80
76263;DHT22;65080;50.908;6.916;2023-06-19T06:02:21;22.60;62.50
76263;DHT22;65080;50.908;6.916;2023-06-19T06:04:50;22.70;62.30
76263;DHT22;65080;50.908;6.916;2023-06-19T06:07:18;22.70;62.20
76263;DHT22;65080;50.908;6.916;2023-06-19T06:09:48;22.70;62.00
76263;DHT22;65080;50.908;6.916;2023-06-19T06:12:16;22.70;62.00
76263;DHT22;65080;50.908;6.916;2023-06-19T06:14:44;22.70;61.90
76263;DHT22;65080;50.908;6.916;2023-06-19T06:17:13;22.80;62.00
76263;DHT22;65080;50.908;6.916;2023-06-19T06:19:41;22.90;61.90
76263;DHT22;65080;50.908;6.916;2023-06-19T06:22:09;23.00;61.60
76263;DHT22;65080;50.908;6.916;2023-06-19T06:24:37;23.00;61.50
76263;DHT22;65080;50.908;6.916;2023-06-19T06:27:07;23.20;61.50
76263;DHT22;65080;50.908;6.916;2023-06-19T06:29:35;23.20;61.10
76263;DHT22;65080;50.908;6.916;2023-06-19T06:32:05;23.20;60.90
76263;DHT22;65080;50.908;6.916;2023-06-19T06:34:34;23.20;60.90
76263;DHT22;65080;50.908;6.916;2023-06-19T06:37:03;23.30;60.90
76263;DHT22;65080;50.908;6.916;2023-06-19T06:39:33;23.40;60.40
76263;DHT22;65080;50.908;6.916;2023-06-19T06:42:01;23.50;60.00
76263;DHT22;65080;50.908;6.916;2023-06-19T06:44:31;23.50;59.70
76263;DHT22;65080;50.908;6.916;2023-06-19T06:46:59;23.50;59.50
76263;DHT22;65080;50.908;6.916;2023-06-19T06:49:28;23.60;59.50
76263;DHT22;65080;50.908;6.916;2023-06-19T06:51:56;23.70;59.40
76263;DHT22;65080;50.908;6.916;2023-06-19T06:54:24;23.70;59.60
76263;DHT22;65080;50.908;6.916;2023-06-19T06:56:52;23.80;58.80
76263;DHT22;65080;50.908;6.916;2023-06-19T06:59:23;23.80;58.70
76263;DHT22;65080;50.908;6.916;2023-06-19T07:01:54;23.80;58.30
76263;DHT22;65080;50.908;6.916;2023-06-19T07:04:23;23.90;58.20
76263;DHT22;65080;50.908;6.916;2023-06-19T07:06:52;23.90;57.90
76263;DHT22;65080;50.908;6.916;2023-06-19T07:09:20;23.90;57.30
76263;DHT22;65080;50.908;6.916;2023-06-19T07:11:49;23.90;57.10
76263;DHT22;65080;50.908;6.916;2023-06-19T07:14:20;23.90;57.00
76263;DHT22;65080;50.908;6.916;2023-06-19T07:16:49;24.00;56.80
76263;DHT22;65080;50.908;6.916;2023-06-19T07:19:18;24.00;56.40
76263;DHT22;65080;50.908;6.916;2023-06-19T07:21:49;24.10;56.30
76263;DHT22;65080;50.908;6.916;2023-06-19T07:24:18;24.20;55.80
76263;DHT22;65080;50.908;6.916;2023-06-19T07:26:46;24.30;55.30
76263;DHT22;65080;50.908;6.916;2023-06-19T07:29:14;24.40;54.80
76263;DHT22;65080;50.908;6.916;2023-06-19T07:31:43;24.40;54.40
76263;DHT22;65080;50.908;6.916;2023-06-19T07:34:11;24.40;54.30
76263;DHT22;65080;50.908;6.916;2023-06-19T07:36:40;24.50;54.20
76263;DHT22;65080;50.908;6.916;2023-06-19T07:39:09;24.60;54.20
76263;DHT22;65080;50.908;6.916;2023-06-19T07:41:38;24.70;53.90
76263;DHT22;65080;50.908;6.916;2023-06-19T07:44:06;24.70;53.60
76263;DHT22;65080;50.908;6.916;2023-06-19T07:46:34;24.70;53.60
76263;DHT22;65080;50.908;6.916;2023-06-19T07:49:02;24.60;53.50
76263;DHT22;65080;50.908;6.916;2023-06-19T07:51:31;24.50;53.50
76263;DHT22;65080;50.908;6.916;2023-06-19T07:54:00;24.50;53.60
76263;DHT22;65080;50.908;6.916;2023-06-19T07:56:29;24.50;53.60
76263;DHT22;65080;50.908;6.916;2023-06-19T07:58:57;24.60;53.80
76263;DHT22;65080;50.908;6.916;2023-06-19T08:01:25;24.60;53.90
76263;DHT22;65080;50.908;6.916;2023-06-19T08:03:53;24.60;53.90
76263;DHT22;65080;50.908;6.916;2023-06-19T08:06:22;24.70;54.00
76263;DHT22;65080;50.908;6.916;2023-06-19T08:08:50;24.80;54.10
76263;DHT22;65080;50.908;6.916;2023-06-19T08:11:20;24.80;54.00
76263;DHT22;65080;50.908;6.916;2023-06-19T08:13:49;24.90;54.00
76263;DHT22;65080;50.908;6.916;2023-06-19T08:16:17;25.00;54.10
76263;DHT22;65080;50.908;6.916;2023-06-19T08:18:46;25.00;54.20
76263;DHT22;65080;50.908;6.916;2023-06-19T08:21:14;25.00;54.20
76263;DHT22;65080;50.908;6.916;2023-06-19T08:23:42;25.00;54.20
76263;DHT22;65080;50.908;6.916;2023-06-19T08:26:11;25.00;54.30
76263;DHT22;65080;50.908;6.916;2023-06-19T08:28:40;25.20;54.10
76263;DHT22;65080;50.908;6.916;2023-06-19T08:31:09;25.20;54.00
76263;DHT22;65080;50.908;6.916;2023-06-19T08:33:39;25.20;53.90
76263;DHT22;65080;50.908;6.916;2023-06-19T08:36:07;25.30;53.80
76263;DHT22;65080;50.908;6.916;2023-06-19T08:38:35;25.30;53.80
76263;DHT22;65080;50.908;6.916;2023-06-19T08:41:05;25.30;53.70
76263;DHT22;65080;50.908;6.916;2023-06-19T08:43:33;25.30;53.50
76263;DHT22;65080;50.908;6.916;2023-06-19T08:46:09;25.30;53.40
76263;DHT22;65080;50.908;6.916;2023-06-19T08:48:38;25.20;53.20
76263;DHT22;65080;50.908;6.916;2023-06-19T08:51:07;25.10;53.20
76263;DHT22;65080;50.908;6.916;2023-06-19T08:53:36;25.00;53.20
76263;DHT22;65080;50.908;6.916;2023-06-19T08:56:05;25.00;53.10
76263;DHT22;65080;50.908;6.916;2023-06-19T08:58:33;25.00;53.00
76263;DHT22;65080;50.908;6.916;2023-06-19T09:01:01;25.00;52.90
76263;DHT22;65080;50.908;6.916;2023-06-19T09:03:31;25.00;52.80
76263;DHT22;65080;50.908;6.916;2023-06-19T09:06:03;25.00;52.70
76263;DHT22;65080;50.908;6.916;2023-06-19T09:08:31;25.10;52.70
76263;DHT22;65080;50.908;6.916;2023-06-19T09:11:01;25.20;52.50
76263;DHT22;65080;50.908;6.916;2023-06-19T09:13:30;25.20;52.40
76263;DHT22;65080;50.908;6.916;2023-06-19T09:16:00;25.20;52.30
76263;DHT22;65080;50.908;6.916;2023-06-19T09:18:41;25.20;52.20
76263;DHT22;65080;50.908;6.916;2023-06-19T09:21:14;25.20;51.90
76263;DHT22;65080;50.908;6.916;2023-06-19T09:23:43;25.20;51.80
76263;DHT22;65080;50.908;6.916;2023-06-19T09:26:14;25.20;52.10
76263;DHT22;65080;50.908;6.916;2023-06-19T09:28:43;25.20;51.10
76263;DHT22;65080;50.908;6.916;2023-06-19T09:31:12;25.30;51.20
76263;DHT22;65080;50.908;6.916;2023-06-19T09:33:42;25.40;51.00
76263;DHT22;65080;50.908;6.916;2023-06-19T09:36:10;25.40;50.50
76263;DHT22;65080;50.908;6.916;2023-06-19T09:38:39;25.50;50.60
76263;DHT22;65080;50.908;6.916;2023-06-19T09:41:08;25.50;50.70
76263;DHT22;65080;50.908;6.916;2023-06-19T09:43:37;25.60;50.60
76263;DHT22;65080;50.908;6.916;2023-06-19T09:46:06;25.70;50.10
76263;DHT22;65080;50.908;6.916;2023-06-19T09:48:35;25.60;49.90
76263;DHT22;65080;50.908;6.916;2023-06-19T09:51:10;25.60;50.00
76263;DHT22;65080;50.908;6.916;2023-06-19T09:53:39;25.70;50.00
76263;DHT22;65080;50.908;6.916;2023-06-19T09:56:08;25.80;50.00
76263;DHT22;65080;50.908;6.916;2023-06-19T09:58:37;25.80;49.70
76263;DHT22;65080;50.908;6.916;2023-06-19T10:01:06;25.80;49.50
76263;DHT22;65080;50.908;6.916;2023-06-19T10:03:35;25.80;49.60
76263;DHT22;65080;50.908;6.916;2023-06-19T10:06:05;25.80;49.20
76263;DHT22;65080;50.908;6.916;2023-06-19T10:08:39;25.90;48.80
76263;DHT22;65080;50.908;6.916;2023-06-19T10:11:07;26.00;48.50
76263;DHT22;65080;50.908;6.916;2023-06-19T10:13:37;26.00;48.40
76263;DHT22;65080;50.908;6.916;2023-06-19T10:16:07;26.10;48.40
76263;DHT22;65080;50.908;6.916;2023-06-19T10:18:44;26.10;48.40
76263;DHT22;65080;50.908;6.916;2023-06-19T10:21:17;26.30;48.30
76263;DHT22;65080;50.908;6.916;2023-06-19T10:23:54;26.30;47.90
76263;DHT22;65080;50.908;6.916;2023-06-19T10:26:30;26.40;47.70
76263;DHT22;65080;50.908;6.916;2023-06-19T10:28:59;26.40;47.50
76263;DHT22;65080;50.908;6.916;2023-06-19T10:31:27;26.40;47.10
76263;DHT22;65080;50.908;6.916;2023-06-19T10:33:56;26.40;47.00
76263;DHT22;65080;50.908;6.916;2023-06-19T10:36:26;26.50;46.90
76263;DHT22;65080;50.908;6.916;2023-06-19T10:38:54;26.50;46.60
76263;DHT22;65080;50.908;6.916;2023-06-19T10:41:24;26.60;46.50
76263;DHT22;65080;50.908;6.916;2023-06-19T10:43:54;26.70;46.30
76263;DHT22;65080;50.908;6.916;2023-06-19T10:46:24;26.70;46.10
76263;DHT22;65080;50.908;6.916;2023-06-19T10:48:54;26.90;46.10
76263;DHT22;65080;50.908;6.916;2023-06-19T10:51:28;27.00;45.80
76263;DHT22;65080;50.908;6.916;2023-06-19T10:53:57;27.10;45.50
76263;DHT22;65080;50.908;6.916;2023-06-19T10:56:25;27.20;45.30
76263;DHT22;65080;50.908;6.916;2023-06-19T10:58:58;27.20;45.20
76263;DHT22;65080;50.908;6.916;2023-06-19T11:01:37;27.20;45.20
76263;DHT22;65080;50.908;6.916;2023-06-19T11:04:07;27.20;45.00
76263;DHT22;65080;50.908;6.916;2023-06-19T11:06:38;27.30;44.90
76263;DHT22;65080;50.908;6.916;2023-06-19T11:09:07;27.40;44.90
76263;DHT22;65080;50.908;6.916;2023-06-19T11:11:37;27.40;44.90
76263;DHT22;65080;50.908;6.916;2023-06-19T11:14:06;27.40;44.80
76263;DHT22;65080;50.908;6.916;2023-06-19T11:16:34;27.50;45.00
76263;DHT22;65080;50.908;6.916;2023-06-19T11:19:06;27.50;44.10
76263;DHT22;65080;50.908;6.916;2023-06-19T11:21:37;27.60;44.20
76263;DHT22;65080;50.908;6.916;2023-06-19T11:24:11;27.70;43.40
76263;DHT22;65080;50.908;6.916;2023-06-19T11:26:40;27.70;43.10
76263;DHT22;65080;50.908;6.916;2023-06-19T11:29:14;27.70;43.10
76263;DHT22;65080;50.908;6.916;2023-06-19T11:31:43;27.80;42.60
76263;DHT22;65080;50.908;6.916;2023-06-19T11:34:12;27.70;42.00
76263;DHT22;65080;50.908;6.916;2023-06-19T11:36:42;27.80;41.70
76263;DHT22;65080;50.908;6.916;2023-06-19T11:39:11;27.90;41.40
76263;DHT22;65080;50.908;6.916;2023-06-19T11:41:41;27.80;41.20
76263;DHT22;65080;50.908;6.916;2023-06-19T11:44:11;27.90;41.00
76263;DHT22;65080;50.908;6.916;2023-06-19T11:46:39;27.90;41.00
76263;DHT22;65080;50.908;6.916;2023-06-19T11:49:09;28.00;41.30
76263;DHT22;65080;50.908;6.916;2023-06-19T11:51:37;28.00;41.10
76263;DHT22;65080;50.908;6.916;2023-06-19T11:54:08;28.00;40.90
76263;DHT22;65080;50.908;6.916;2023-06-19T11:56:37;28.10;40.70
76263;DHT22;65080;50.908;6.916;2023-06-19T11:59:06;28.00;40.30
76263;DHT22;65080;50.908;6.916;2023-06-19T12:01:36;28.10;40.20
76263;DHT22;65080;50.908;6.916;2023-06-19T12:04:05;28.00;40.10
76263;DHT22;65080;50.908;6.916;2023-06-19T12:06:34;28.00;40.20
76263;DHT22;65080;50.908;6.916;2023-06-19T12:09:04;28.10;40.40
76263;DHT22;65080;50.908;6.916;2023-06-19T12:11:34;28.20;40.40
76263;DHT22;65080;50.908;6.916;2023-06-19T12:14:03;28.30;40.20
76263;DHT22;65080;50.908;6.916;2023-06-19T12:16:31;28.30;40.20
76263;DHT22;65080;50.908;6.916;2023-06-19T12:18:59;28.50;40.30
76263;DHT22;65080;50.908;6.916;2023-06-19T12:21:27;28.60;40.20
76263;DHT22;65080;50.908;6.916;2023-06-19T12:24:06;28.80;40.00
76263;DHT22;65080;50.908;6.916;2023-06-19T12:26:36;28.80;39.80
76263;DHT22;65080;50.908;6.916;2023-06-19T12:29:05;28.80;39.80
76263;DHT22;65080;50.908;6.916;2023-06-19T12:31:34;28.80;39.90
76263;DHT22;65080;50.908;6.916;2023-06-19T12:34:03;28.90;39.70
76263;DHT22;65080;50.908;6.916;2023-06-19T12:36:51;29.00;39.80
76263;DHT22;65080;50.908;6.916;2023-06-19T12:39:19;29.10;39.70
76263;DHT22;65080;50.908;6.916;2023-06-19T12:41:50;29.10;39.50
76263;DHT22;65080;50.908;6.916;2023-06-19T12:44:18;29.10;39.40
76263;DHT22;65080;50.908;6.916;2023-06-19T12:46:46;29.20;39.20
76263;DHT22;65080;50.908;6.916;2023-06-19T12:49:15;29.40;39.10
76263;DHT22;65080;50.908;6.916;2023-06-19T12:51:43;29.50;39.00
76263;DHT22;65080;50.908;6.916;2023-06-19T12:54:11;29.70;39.00
76263;DHT22;65080;50.908;6.916;2023-06-19T12:56:40;29.90;38.50
76263;DHT22;65080;50.908;6.916;2023-06-19T12:59:09;30.20;38.20
76263;DHT22;65080;50.908;6.916;2023-06-19T13:01:37;30.40;37.70
76263;DHT22;65080;50.908;6.916;2023-06-19T13:04:06;30.70;37.20
76263;DHT22;65080;50.908;6.916;2023-06-19T13:06:36;31.00;36.60
76263;DHT22;65080;50.908;6.916;2023-06-19T13:09:04;31.30;36.10
76263;DHT22;65080;50.908;6.916;2023-06-19T13:11:33;31.50;35.90
76263;DHT22;65080;50.908;6.916;2023-06-19T13:14:02;31.70;35.80
76263;DHT22;65080;50.908;6.916;2023-06-19T13:16:32;32.00;35.60
76263;DHT22;65080;50.908;6.916;2023-06-19T13:19:13;32.20;35.40
76263;DHT22;65080;50.908;6.916;2023-06-19T13:21:42;32.40;35.20
76263;DHT22;65080;50.908;6.916;2023-06-19T13:24:11;32.50;34.50
76263;DHT22;65080;50.908;6.916;2023-06-19T13:26:39;32.50;34.40
76263;DHT22;65080;50.908;6.916;2023-06-19T13:29:08;32.50;34.20
76263;DHT22;65080;50.908;6.916;2023-06-19T13:31:38;32.40;34.30
76263;DHT22;65080;50.908;6.916;2023-06-19T13:34:06;32.40;34.40
76263;DHT22;65080;50.908;6.916;2023-06-19T13:36:34;32.60;34.20
76263;DHT22;65080;50.908;6.916;2023-06-19T13:39:03;32.70;34.00
76263;DHT22;65080;50.908;6.916;2023-06-19T13:41:31;32.70;33.90
76263;DHT22;65080;50.908;6.916;2023-06-19T13:44:01;32.90;34.00
76263;DHT22;65080;50.908;6.916;2023-06-19T13:46:29;33.20;33.70
76263;DHT22;65080;50.908;6.916;2023-06-19T13:49:00;33.30;33.10
76263;DHT22;65080;50.908;6.916;2023-06-19T13:51:28;33.40;33.00
76263;DHT22;65080;50.908;6.916;2023-06-19T13:53:56;33.50;33.00
76263;DHT22;65080;50.908;6.916;2023-06-19T13:56:25;33.70;32.70
76263;DHT22;65080;50.908;6.916;2023-06-19T13:58:53;34.00;32.40
76263;DHT22;65080;50.908;6.916;2023-06-19T14:01:22;34.30;32.10
76263;DHT22;65080;50.908;6.916;2023-06-19T14:03:52;34.50;31.70
76263;DHT22;65080;50.908;6.916;2023-06-19T14:06:22;34.60;31.50
76263;DHT22;65080;50.908;6.916;2023-06-19T14:08:50;34.70;31.20
76263;DHT22;65080;50.908;6.916;2023-06-19T14:11:19;34.90;31.20
76263;DHT22;65080;50.908;6.916;2023-06-19T14:13:47;35.10;30.80
76263;DHT22;65080;50.908;6.916;2023-06-19T14:16:16;35.20;30.50
76263;DHT22;65080;50.908;6.916;2023-06-19T14:18:44;35.20;30.30
76263;DHT22;65080;50.908;6.916;2023-06-19T14:21:13;35.30;30.20
76263;DHT22;65080;50.908;6.916;2023-06-19T14:23:42;35.40;30.00
76263;DHT22;65080;50.908;6.916;2023-06-19T14:26:11;35.40;30.00
76263;DHT22;65080;50.908;6.916;2023-06-19T14:28:39;35.60;30.00
76263;DHT22;65080;50.908;6.916;2023-06-19T14:31:07;35.80;29.70
76263;DHT22;65080;50.908;6.916;2023-06-19T14:33:36;35.80;29.50
76263;DHT22;65080;50.908;6.916;2023-06-19T14:36:05;35.80;29.40
76263;DHT22;65080;50.908;6.916;2023-06-19T14:38:33;35.70;29.20
76263;DHT22;65080;50.908;6.916;2023-06-19T14:41:03;35.70;29.60
76263;DHT22;65080;50.908;6.916;2023-06-19T14:43:31;35.80;29.40
76263;DHT22;65080;50.908;6.916;2023-06-19T14:46:01;35.90;29.30
76263;DHT22;65080;50.908;6.916;2023-06-19T14:48:31;36.10;29.10
76263;DHT22;65080;50.908;6.916;2023-06-19T14:51:00;36.20;29.00
76263;DHT22;65080;50.908;6.916;2023-06-19T14:53:31;36.30;28.90
76263;DHT22;65080;50.908;6.916;2023-06-19T14:56:00;36.40;28.80
76263;DHT22;65080;50.908;6.916;2023-06-19T14:58:30;36.50;28.70
76263;DHT22;65080;50.908;6.916;2023-06-19T15:00:59;36.70;28.50
76263;DHT22;65080;50.908;6.916;2023-06-19T15:03:27;36.90;28.40
76263;DHT22;65080;50.908;6.916;2023-06-19T15:05:55;36.90;28.40
76263;DHT22;65080;50.908;6.916;2023-06-19T15:08:23;36.80;28.30
76263;DHT22;65080;50.908;6.916;2023-06-19T15:10:52;36.70;28.30
76263;DHT22;65080;50.908;6.916;2023-06-19T15:13:20;36.70;28.20
76263;DHT22;65080;50.908;6.916;2023-06-19T15:15:49;36.80;28.10
76263;DHT22;65080;50.908;6.916;2023-06-19T15:18:18;36.70;28.00
76263;DHT22;65080;50.908;6.916;2023-06-19T15:20:47;36.50;28.20
76263;DHT22;65080;50.908;6.916;2023-06-19T15:23:15;36.50;28.40
76263;DHT22;65080;50.908;6.916;2023-06-19T15:25:44;36.70;28.60
76263;DHT22;65080;50.908;6.916;2023-06-19T15:28:12;36.90;28.20
76263;DHT22;65080;50.908;6.916;2023-06-19T15:30:41;37.20;28.00
76263;DHT22;65080;50.908;6.916;2023-06-19T15:33:10;37.20;27.70
76263;DHT22;65080;50.908;6.916;2023-06-19T15:35:39;37.20;27.60
76263;DHT22;65080;50.908;6.916;2023-06-19T15:38:08;37.10;27.60
76263;DHT22;65080;50.908;6.916;2023-06-19T15:40:36;37.10;27.70
76263;DHT22;65080;50.908;6.916;2023-06-19T15:43:05;37.00;27.60